Quedas do Iguacu, Brazil
Current Conditions -  °F | °C
As of 2:00 PM on Sunday 21 Dec 2014 (Local Time) from SBFI Reporting Station
Broken Clouds Broken Clouds  
Wind Chill: 86°   Ceiling: 3000
Heat Index: 95°   Visibility: 6mi
Dew Point: 75°   Wind: 16mph
Humidity: 70%   Direction: 330°NNW
Pressure: 29.62"   Gusts: NA
Location:  25.45°S, 52.91°W
Report Text: SBFI 211600Z 33014KT 9999 BKN030 30/24 Q1003
Loading
Personal Weather Stations






























Interactive Weather Map New forecast layout! Learn more

10-Day Weather Forecast

Advertisements
Track Severe Weather on mobile